Terminal Aerodrome Forecast
Issued by NWS

Home | Current Version | Previous Version | Text Only | Print | Product List | Glossary On
Versions: 1 2 3 4 5 6 7 8 9 10 11 12 13 14 15 16 17 18 19 20 21 22
000
FTUS43 KMKX 280533
TAFUES
TAF
KUES 280533Z 2806/0106 14005KT P6SM VCSH OVC100
     FM280800 14007KT P6SM -SHRA OVC060
     FM281000 15007KT 4SM -SHRA BR OVC015
     FM281200 16005KT 4SM BR OVC008
     FM281600 18006KT 4SM BR VCSH OVC003
     FM282200 19006KT 3SM -SHRA BR VCTS OVC003CB
     FM010000 21005KT 2SM -SHRA BR OVC003
     FM010300 27005KT 2SM -SHRA BR OVC003
     FM010500 34006KT 4SM -SHRA BR OVC003=

USA.gov is the U.S. government's official web portal to all federal, state and local government web resources and services.